Time;durP1;ratioP1;P1;durP2;ratioP2;P2;SDS_P1;SDS_P2;PMS_P1;PMS_P2;Temp;Humidity;BMP_temperature;BMP_pressure;BME280_temperature;BME280_humidity;BME280_pressure;Samples;Min_cycle;Max_cycle;Signal;HPM_P1;HPM_P2
2023/03/24 00:02:23;;;;;;;12.38;3.80;;;;;;;;;;5022105;28;20192;-69
2023/03/24 00:04:51;;;;;;;7.32;2.88;;;;;;;;;;5026698;28;20198;-69
2023/03/24 00:07:18;;;;;;;5.65;2.55;;;;;;;;;;5022215;28;20213;-69
2023/03/24 00:09:44;;;;;;;7.20;3.20;;;;;;;;;;5030164;28;20553;-68
2023/03/24 00:12:12;;;;;;;8.40;3.42;;;;;;;;;;5040817;28;20587;-67
2023/03/24 00:14:39;;;;;;;6.95;3.20;;;;;;;;;;5025876;28;20193;-69
2023/03/24 00:17:08;;;;;;;8.93;3.00;;;;;;;;;;5021504;28;20435;-68
2023/03/24 00:19:37;;;;;;;7.45;3.08;;;;;;;;;;5021242;28;20217;-69
2023/03/24 00:22:07;;;;;;;7.88;2.90;;;;;;;;;;5030853;28;20982;-69
2023/03/24 00:24:33;;;;;;;4.95;2.45;;;;;;;;;;5032289;28;20182;-69
2023/03/24 00:26:59;;;;;;;7.90;2.83;;;;;;;;;;5032023;28;20210;-68
2023/03/24 00:29:25;;;;;;;8.25;2.88;;;;;;;;;;5027006;28;20219;-69
2023/03/24 00:31:52;;;;;;;4.00;2.63;;;;;;;;;;5026243;28;20545;-68
2023/03/24 00:34:21;;;;;;;7.03;2.97;;;;;;;;;;5031680;28;20194;-70
2023/03/24 00:36:48;;;;;;;6.60;3.53;;;;;;;;;;5044063;28;20209;-68
2023/03/24 00:39:16;;;;;;;5.90;2.85;;;;;;;;;;5034187;28;20413;-67
2023/03/24 00:41:44;;;;;;;6.63;3.20;;;;;;;;;;5031780;28;20240;-70
2023/03/24 00:44:16;;;;;;;6.70;3.40;;;;;;;;;;5028765;28;20261;-69
2023/03/24 00:46:54;;;;;;;7.70;3.25;;;;;;;;;;5023567;28;20218;-70
2023/03/24 00:49:40;;;;;;;5.78;3.42;;;;;;;;;;5027252;28;20201;-68
2023/03/24 00:52:10;;;;;;;5.38;3.38;;;;;;;;;;5031268;28;20337;-68
2023/03/24 00:54:37;;;;;;;10.73;3.40;;;;;;;;;;5033891;28;20274;-69
2023/03/24 00:57:03;;;;;;;5.80;3.40;;;;;;;;;;5020357;28;20182;-68
2023/03/24 00:59:29;;;;;;;6.45;3.67;;;;;;;;;;5021212;28;20613;-68
2023/03/24 01:01:55;;;;;;;8.23;3.30;;;;;;;;;;5022521;28;20206;-68
2023/03/24 01:04:25;;;;;;;7.13;3.58;;;;;;;;;;5034638;28;20538;-71
2023/03/24 01:06:51;;;;;;;9.35;3.67;;;;;;;;;;5034555;28;20240;-69
2023/03/24 01:09:20;;;;;;;6.07;3.00;;;;;;;;;;5016155;28;20720;-68
2023/03/24 01:11:46;;;;;;;7.32;3.65;;;;;;;;;;5027056;28;20202;-69
2023/03/24 01:14:11;;;;;;;6.05;3.30;;;;;;;;;;5025164;28;20251;-68
2023/03/24 01:16:36;;;;;;;7.30;3.55;;;;;;;;;;5027840;28;20658;-68
2023/03/24 01:19:03;;;;;;;8.32;3.70;;;;;;;;;;5032055;28;20668;-68
2023/03/24 01:21:28;;;;;;;5.82;3.78;;;;;;;;;;5019566;28;20221;-68
2023/03/24 01:23:53;;;;;;;5.80;3.03;;;;;;;;;;5014147;28;20191;-67
2023/03/24 01:26:19;;;;;;;8.18;3.72;;;;;;;;;;5023702;28;20454;-69
2023/03/24 01:28:44;;;;;;;6.28;3.25;;;;;;;;;;5022200;28;20655;-67
2023/03/24 01:31:10;;;;;;;5.97;3.83;;;;;;;;;;5025512;28;20593;-68
2023/03/24 01:33:37;;;;;;;5.30;3.45;;;;;;;;;;5020521;28;20230;-68
2023/03/24 01:36:04;;;;;;;6.47;3.92;;;;;;;;;;5024076;28;20190;-68
2023/03/24 01:38:29;;;;;;;5.85;2.78;;;;;;;;;;5031456;28;20235;-68
2023/03/24 01:40:55;;;;;;;6.72;3.70;;;;;;;;;;5033207;28;20249;-69
2023/03/24 01:43:25;;;;;;;5.70;3.45;;;;;;;;;;5027123;28;20201;-68
2023/03/24 01:46:06;;;;;;;8.88;3.70;;;;;;;;;;5021953;28;20702;-69
2023/03/24 01:48:42;;;;;;;5.53;3.38;;;;;;;;;;5037185;28;20209;-69
2023/03/24 01:51:35;;;;;;;6.32;3.47;;;;;;;;;;5031809;28;20192;-67
2023/03/24 01:54:17;;;;;;;6.97;3.30;;;;;;;;;;5027656;28;20285;-68
2023/03/24 01:56:47;;;;;;;7.00;2.90;;;;;;;;;;5017978;28;20239;-67
2023/03/24 01:59:26;;;;;;;6.47;3.67;;;;;;;;;;5023083;28;20244;-67
2023/03/24 02:02:01;;;;;;;4.85;3.65;;;;;;;;;;5030675;28;20245;-68
2023/03/24 02:04:29;;;;;;;5.20;3.35;;;;;;;;;;5029928;28;20200;-67
2023/03/24 02:06:55;;;;;;;5.50;3.17;;;;;;;;;;5037719;28;20229;-67
2023/03/24 02:09:21;;;;;;;6.10;3.72;;;;;;;;;;5024080;28;20603;-68
2023/03/24 02:11:46;;;;;;;5.97;3.50;;;;;;;;;;5028074;28;20285;-68
2023/03/24 02:14:12;;;;;;;5.32;3.10;;;;;;;;;;5023591;28;20194;-68
2023/03/24 02:16:47;;;;;;;5.90;3.35;;;;;;;;;;5041134;28;20664;-68
2023/03/24 02:19:38;;;;;;;6.30;3.00;;;;;;;;;;5031803;28;20273;-67
2023/03/24 02:22:23;;;;;;;4.43;3.10;;;;;;;;;;5023485;28;20213;-67
2023/03/24 02:25:26;;;;;;;5.85;3.30;;;;;;;;;;5024646;28;20251;-66
2023/03/24 02:28:15;;;;;;;9.15;3.40;;;;;;;;;;5022962;28;20229;-68
2023/03/24 02:31:17;;;;;;;5.30;3.50;;;;;;;;;;5020721;28;20622;-69
2023/03/24 02:34:20;;;;;;;4.75;3.22;;;;;;;;;;5027532;28;20232;-68
2023/03/24 02:36:58;;;;;;;5.20;3.45;;;;;;;;;;5024240;28;20216;-68
2023/03/24 02:39:54;;;;;;;7.85;3.28;;;;;;;;;;5034846;28;20273;-69
2023/03/24 02:42:25;;;;;;;6.00;3.17;;;;;;;;;;5024274;28;20271;-70
2023/03/24 02:45:14;;;;;;;6.18;3.20;;;;;;;;;;5024534;28;20228;-70
2023/03/24 02:48:01;;;;;;;5.72;3.30;;;;;;;;;;5027126;28;20236;-70
2023/03/24 02:50:52;;;;;;;6.75;3.13;;;;;;;;;;5026986;28;20634;-69
2023/03/24 02:54:16;;;;;;;6.68;3.10;;;;;;;;;;5016921;28;20198;-68
2023/03/24 02:57:06;;;;;;;6.10;3.10;;;;;;;;;;4991831;28;20541;-67
2023/03/24 02:59:48;;;;;;;4.65;2.97;;;;;;;;;;5032828;28;20220;-67
2023/03/24 03:02:21;;;;;;;4.55;2.83;;;;;;;;;;5036921;28;20209;-68
2023/03/24 03:04:53;;;;;;;6.55;2.85;;;;;;;;;;5028758;28;20319;-69
2023/03/24 03:07:25;;;;;;;4.10;3.08;;;;;;;;;;5020763;28;20717;-70
2023/03/24 03:10:01;;;;;;;4.40;2.80;;;;;;;;;;5023369;28;20237;-68
2023/03/24 03:12:31;;;;;;;5.15;3.38;;;;;;;;;;5023104;28;20634;-68
2023/03/24 03:15:11;;;;;;;4.95;3.00;;;;;;;;;;5033818;28;20646;-68
2023/03/24 03:17:52;;;;;;;5.78;3.17;;;;;;;;;;5019804;28;20189;-68
2023/03/24 03:20:22;;;;;;;6.35;3.15;;;;;;;;;;5039941;28;20190;-69
2023/03/24 03:22:57;;;;;;;5.25;3.38;;;;;;;;;;5034761;28;20586;-69
2023/03/24 03:25:27;;;;;;;5.75;3.22;;;;;;;;;;5023013;28;20560;-68
2023/03/24 03:27:57;;;;;;;7.80;3.42;;;;;;;;;;5023315;28;20591;-68
2023/03/24 03:30:30;;;;;;;3.90;3.03;;;;;;;;;;5029586;28;20193;-69
2023/03/24 03:33:03;;;;;;;5.03;3.40;;;;;;;;;;5022296;28;20187;-69
2023/03/24 03:35:35;;;;;;;6.55;3.55;;;;;;;;;;5040795;28;20507;-68
2023/03/24 03:38:19;;;;;;;5.75;3.38;;;;;;;;;;5027210;28;20186;-71
2023/03/24 03:40:53;;;;;;;4.00;3.22;;;;;;;;;;5024840;28;20194;-70
2023/03/24 03:43:18;;;;;;;6.15;3.40;;;;;;;;;;5030977;28;20273;-70
2023/03/24 03:45:44;;;;;;;4.25;3.38;;;;;;;;;;5018365;28;20950;-69
2023/03/24 03:48:09;;;;;;;5.47;3.65;;;;;;;;;;5027094;28;20658;-70
2023/03/24 03:50:36;;;;;;;5.32;3.53;;;;;;;;;;5021247;28;20501;-71
2023/03/24 03:53:02;;;;;;;7.22;3.70;;;;;;;;;;5027444;28;20209;-69
2023/03/24 03:55:27;;;;;;;5.15;3.58;;;;;;;;;;5026458;28;20446;-72
2023/03/24 03:57:53;;;;;;;4.50;3.00;;;;;;;;;;5029422;28;20613;-72
2023/03/24 04:00:21;;;;;;;6.20;2.60;;;;;;;;;;5027044;28;20677;-70
2023/03/24 04:03:14;;;;;;;4.03;2.15;;;;;;;;;;5025303;28;20194;-71
2023/03/24 04:05:56;;;;;;;3.03;1.92;;;;;;;;;;5026073;28;20444;-72
2023/03/24 04:08:36;;;;;;;3.33;2.13;;;;;;;;;;5024923;28;20202;-70
2023/03/24 04:11:23;;;;;;;2.97;1.60;;;;;;;;;;5024257;28;20193;-69
2023/03/24 04:14:16;;;;;;;3.20;1.85;;;;;;;;;;5025531;28;20212;-70
2023/03/24 04:17:21;;;;;;;2.42;1.50;;;;;;;;;;5024572;28;20661;-70
2023/03/24 04:20:11;;;;;;;3.33;1.80;;;;;;;;;;5028857;28;20189;-68
2023/03/24 04:23:08;;;;;;;2.85;1.55;;;;;;;;;;5024659;28;20182;-68
2023/03/24 04:26:05;;;;;;;2.13;1.80;;;;;;;;;;5030172;28;20190;-68
2023/03/24 04:28:40;;;;;;;4.50;1.95;;;;;;;;;;5035981;28;20647;-68
2023/03/24 04:31:22;;;;;;;4.78;1.48;;;;;;;;;;5022468;28;20186;-67
2023/03/24 04:33:51;;;;;;;7.03;1.67;;;;;;;;;;5041573;28;20182;-66
2023/03/24 04:36:26;;;;;;;3.88;1.38;;;;;;;;;;5027482;28;20272;-67
2023/03/24 04:38:53;;;;;;;5.63;1.23;;;;;;;;;;5010258;28;20496;-67
2023/03/24 04:41:20;;;;;;;1.95;1.10;;;;;;;;;;5029722;28;20190;-67
2023/03/24 04:43:47;;;;;;;5.13;1.70;;;;;;;;;;5022183;28;20878;-68
2023/03/24 04:46:16;;;;;;;2.97;1.33;;;;;;;;;;5027621;28;20197;-68
2023/03/24 04:48:47;;;;;;;5.55;1.20;;;;;;;;;;5027991;28;20241;-68
2023/03/24 04:51:14;;;;;;;4.57;1.30;;;;;;;;;;5020779;28;20183;-67
2023/03/24 04:53:40;;;;;;;4.68;1.20;;;;;;;;;;5017303;28;20267;-67
2023/03/24 04:56:37;;;;;;;4.80;1.20;;;;;;;;;;5027752;28;20213;-67
2023/03/24 04:59:03;;;;;;;3.95;1.20;;;;;;;;;;5026444;28;20197;-67
2023/03/24 05:01:29;;;;;;;6.72;2.10;;;;;;;;;;5021308;28;20217;-67
2023/03/24 05:03:56;;;;;;;4.88;1.45;;;;;;;;;;5018594;28;20270;-69
2023/03/24 05:06:21;;;;;;;2.67;1.40;;;;;;;;;;5028242;28;20759;-66
2023/03/24 05:08:47;;;;;;;9.50;1.73;;;;;;;;;;5019689;28;20305;-67
2023/03/24 05:11:13;;;;;;;6.25;1.73;;;;;;;;;;5033996;28;20186;-67
2023/03/24 05:13:38;;;;;;;5.47;1.20;;;;;;;;;;5015773;28;20546;-67
2023/03/24 05:16:04;;;;;;;7.07;1.50;;;;;;;;;;5014645;28;20194;-66
2023/03/24 05:18:29;;;;;;;7.60;1.58;;;;;;;;;;5016953;28;20197;-67
2023/03/24 05:20:55;;;;;;;5.72;1.33;;;;;;;;;;5016927;28;20193;-66
2023/03/24 05:23:20;;;;;;;5.80;1.60;;;;;;;;;;5021651;28;20186;-66
2023/03/24 05:25:46;;;;;;;7.15;1.60;;;;;;;;;;5021121;28;20297;-66
2023/03/24 05:28:12;;;;;;;4.35;1.33;;;;;;;;;;5020916;28;20306;-67
2023/03/24 05:30:37;;;;;;;6.50;1.23;;;;;;;;;;5027705;28;20712;-66
2023/03/24 05:33:03;;;;;;;4.55;1.48;;;;;;;;;;5026786;28;20268;-66
2023/03/24 05:35:29;;;;;;;4.57;1.27;;;;;;;;;;5026071;28;20735;-66
2023/03/24 05:37:54;;;;;;;6.70;1.50;;;;;;;;;;5020580;28;20557;-66
2023/03/24 05:40:20;;;;;;;6.20;1.63;;;;;;;;;;5027097;28;20206;-67
2023/03/24 05:42:49;;;;;;;7.95;1.60;;;;;;;;;;5022133;28;20193;-67
2023/03/24 05:45:15;;;;;;;9.55;1.48;;;;;;;;;;5021231;28;20197;-67
2023/03/24 05:47:40;;;;;;;6.07;1.92;;;;;;;;;;5016756;28;20218;-67
2023/03/24 05:50:06;;;;;;;7.72;1.95;;;;;;;;;;5027552;28;20194;-66
2023/03/24 05:52:32;;;;;;;5.80;1.58;;;;;;;;;;5024795;28;20265;-69
2023/03/24 05:54:57;;;;;;;9.48;2.70;;;;;;;;;;5015587;28;20255;-68
2023/03/24 05:57:23;;;;;;;7.32;1.92;;;;;;;;;;5019712;28;20645;-67
2023/03/24 05:59:48;;;;;;;5.75;2.10;;;;;;;;;;5022094;28;20336;-66
2023/03/24 06:02:14;;;;;;;7.72;1.98;;;;;;;;;;5021425;28;20194;-67
2023/03/24 06:04:44;;;;;;;7.68;2.17;;;;;;;;;;5020787;28;20214;-68
2023/03/24 06:07:10;;;;;;;10.88;2.10;;;;;;;;;;5024655;28;20210;-67
2023/03/24 06:09:36;;;;;;;11.10;2.97;;;;;;;;;;5023950;28;20561;-67
2023/03/24 06:12:02;;;;;;;9.02;2.30;;;;;;;;;;5015562;28;20617;-67
2023/03/24 06:14:28;;;;;;;5.55;1.98;;;;;;;;;;5017784;28;20242;-67
2023/03/24 06:16:58;;;;;;;11.50;2.58;;;;;;;;;;5027982;28;20280;-67
2023/03/24 06:19:24;;;;;;;12.02;2.47;;;;;;;;;;5022844;28;20315;-66
2023/03/24 06:21:50;;;;;;;7.10;1.88;;;;;;;;;;5024690;28;20423;-67
2023/03/24 06:24:16;;;;;;;13.18;2.40;;;;;;;;;;5026301;28;20364;-67
2023/03/24 06:26:48;;;;;;;18.05;2.30;;;;;;;;;;5015015;28;20194;-67
2023/03/24 06:29:16;;;;;;;11.95;2.00;;;;;;;;;;5017182;28;20234;-66
2023/03/24 06:31:42;;;;;;;12.73;2.20;;;;;;;;;;5030686;28;20268;-66
2023/03/24 06:34:08;;;;;;;11.98;2.20;;;;;;;;;;5025002;28;20190;-66
2023/03/24 06:36:33;;;;;;;13.20;2.70;;;;;;;;;;5027780;28;20190;-66
2023/03/24 06:39:01;;;;;;;16.10;2.45;;;;;;;;;;5021169;28;20484;-67
2023/03/24 06:41:26;;;;;;;17.70;2.80;;;;;;;;;;5018343;28;20195;-67
2023/03/24 06:43:52;;;;;;;16.08;2.30;;;;;;;;;;5016499;28;20604;-66
2023/03/24 06:46:17;;;;;;;13.13;2.15;;;;;;;;;;5022889;28;20186;-66
2023/03/24 06:48:42;;;;;;;19.27;2.30;;;;;;;;;;5034356;28;20245;-67
2023/03/24 06:51:08;;;;;;;18.27;2.92;;;;;;;;;;5022920;28;20201;-67
2023/03/24 06:53:34;;;;;;;10.77;1.83;;;;;;;;;;5028989;28;20597;-66
2023/03/24 06:56:00;;;;;;;17.60;2.70;;;;;;;;;;5029793;28;20190;-66
2023/03/24 06:58:25;;;;;;;19.48;3.45;;;;;;;;;;5024647;28;20216;-65
2023/03/24 07:00:50;;;;;;;18.10;2.80;;;;;;;;;;5018134;28;20255;-65
2023/03/24 07:03:16;;;;;;;13.27;3.05;;;;;;;;;;5012320;28;20576;-66
2023/03/24 07:05:44;;;;;;;16.52;3.00;;;;;;;;;;5023236;28;20194;-66
2023/03/24 07:08:10;;;;;;;15.70;2.63;;;;;;;;;;5023641;28;20206;-66
2023/03/24 07:10:38;;;;;;;18.15;2.70;;;;;;;;;;5025893;28;20290;-65
2023/03/24 07:13:04;;;;;;;17.50;2.72;;;;;;;;;;5010646;28;20329;-66
2023/03/24 07:15:30;;;;;;;19.55;2.92;;;;;;;;;;5020270;28;20705;-66
2023/03/24 07:17:56;;;;;;;22.92;2.97;;;;;;;;;;5030202;28;20187;-67
2023/03/24 07:20:22;;;;;;;16.88;3.58;;;;;;;;;;5026008;28;20207;-66
2023/03/24 07:22:47;;;;;;;17.63;3.53;;;;;;;;;;5020558;28;20195;-68
2023/03/24 07:25:13;;;;;;;17.50;3.42;;;;;;;;;;5021595;28;20263;-66
2023/03/24 07:27:39;;;;;;;18.02;3.22;;;;;;;;;;5022070;28;20264;-67
2023/03/24 07:30:06;;;;;;;13.15;3.33;;;;;;;;;;5020634;28;20241;-67
2023/03/24 07:32:33;;;;;;;17.25;3.13;;;;;;;;;;5016834;28;20205;-67
2023/03/24 07:35:00;;;;;;;19.65;3.92;;;;;;;;;;5014105;28;20183;-68
2023/03/24 07:37:25;;;;;;;10.80;3.17;;;;;;;;;;5016287;28;20817;-68
2023/03/24 07:39:51;;;;;;;16.30;3.50;;;;;;;;;;5012431;28;20232;-68
2023/03/24 07:42:16;;;;;;;15.70;3.35;;;;;;;;;;5016019;28;20236;-66
2023/03/24 07:44:42;;;;;;;12.55;3.58;;;;;;;;;;5018925;28;20200;-67
2023/03/24 07:47:08;;;;;;;18.92;3.72;;;;;;;;;;5027450;28;20338;-67
2023/03/24 07:49:33;;;;;;;17.98;3.63;;;;;;;;;;5022115;28;20198;-67
2023/03/24 07:51:58;;;;;;;13.93;3.33;;;;;;;;;;5029943;28;20201;-67
2023/03/24 07:54:24;;;;;;;14.55;3.05;;;;;;;;;;5015591;28;20190;-67
2023/03/24 07:56:49;;;;;;;17.88;2.95;;;;;;;;;;5020772;28;20194;-67
2023/03/24 07:59:16;;;;;;;17.02;3.25;;;;;;;;;;5020748;28;20219;-67
2023/03/24 08:01:42;;;;;;;18.13;3.33;;;;;;;;;;5014826;28;20207;-67
2023/03/24 08:04:10;;;;;;;21.98;4.00;;;;;;;;;;5020404;28;20663;-67
2023/03/24 08:06:36;;;;;;;12.13;3.55;;;;;;;;;;5018873;28;20206;-67
2023/03/24 08:09:01;;;;;;;17.13;4.45;;;;;;;;;;5024207;28;20241;-67
2023/03/24 08:11:27;;;;;;;17.50;3.45;;;;;;;;;;5012911;28;20202;-67
2023/03/24 08:13:52;;;;;;;18.35;3.60;;;;;;;;;;5013898;28;22427;-66
2023/03/24 08:16:18;;;;;;;16.73;3.75;;;;;;;;;;5016455;28;20658;-66
2023/03/24 08:18:43;;;;;;;14.45;3.20;;;;;;;;;;5012816;28;20233;-67
2023/03/24 08:21:08;;;;;;;15.02;3.10;;;;;;;;;;5016159;28;20252;-67
2023/03/24 08:23:35;;;;;;;12.20;2.80;;;;;;;;;;5038336;28;20205;-66
2023/03/24 08:26:01;;;;;;;15.20;2.80;;;;;;;;;;5021361;28;20205;-67
2023/03/24 08:28:26;;;;;;;13.82;2.83;;;;;;;;;;5031679;28;20571;-67
2023/03/24 08:30:52;;;;;;;13.57;2.85;;;;;;;;;;5026739;28;20635;-68
2023/03/24 08:33:17;;;;;;;17.40;3.63;;;;;;;;;;5023868;28;20646;-67
2023/03/24 08:35:46;;;;;;;15.02;3.08;;;;;;;;;;5010771;28;20659;-66
2023/03/24 08:38:13;;;;;;;14.30;2.55;;;;;;;;;;5025915;28;20270;-66
2023/03/24 08:40:40;;;;;;;13.27;2.53;;;;;;;;;;5023168;28;20182;-67
2023/03/24 08:43:07;;;;;;;12.68;2.47;;;;;;;;;;5015836;28;20480;-67
2023/03/24 08:45:34;;;;;;;12.10;2.83;;;;;;;;;;5018648;28;20697;-67
2023/03/24 08:48:01;;;;;;;14.63;2.75;;;;;;;;;;5019248;28;20298;-67
2023/03/24 08:50:31;;;;;;;15.05;3.05;;;;;;;;;;5015656;28;20190;-67
2023/03/24 08:52:57;;;;;;;11.50;2.03;;;;;;;;;;5012044;28;20654;-67
2023/03/24 08:55:23;;;;;;;11.93;2.50;;;;;;;;;;5013554;28;20221;-68
2023/03/24 08:57:49;;;;;;;13.30;2.80;;;;;;;;;;5014069;28;20366;-67
2023/03/24 09:00:17;;;;;;;11.30;2.40;;;;;;;;;;5011673;28;20195;-67
2023/03/24 09:02:49;;;;;;;12.13;2.75;;;;;;;;;;5017767;28;20186;-67
2023/03/24 09:05:17;;;;;;;17.45;2.65;;;;;;;;;;5011386;28;20187;-67
2023/03/24 09:07:43;;;;;;;13.50;2.67;;;;;;;;;;5014532;28;20209;-68
2023/03/24 09:10:10;;;;;;;14.40;2.50;;;;;;;;;;5021918;28;20641;-68
2023/03/24 09:12:36;;;;;;;10.70;2.65;;;;;;;;;;5015543;28;20236;-67
2023/03/24 09:15:03;;;;;;;12.23;2.08;;;;;;;;;;5015999;28;20259;-67
2023/03/24 09:17:29;;;;;;;13.27;2.10;;;;;;;;;;5020896;28;20182;-67
2023/03/24 09:19:55;;;;;;;7.95;2.10;;;;;;;;;;5020186;28;20200;-67
2023/03/24 09:22:20;;;;;;;15.10;3.20;;;;;;;;;;5022807;28;20544;-67
2023/03/24 09:24:47;;;;;;;15.27;2.55;;;;;;;;;;5020347;28;20495;-67
2023/03/24 09:27:14;;;;;;;12.05;2.40;;;;;;;;;;5021699;28;20203;-67
2023/03/24 09:29:40;;;;;;;11.95;2.65;;;;;;;;;;5034226;28;20611;-67
2023/03/24 09:32:05;;;;;;;16.70;2.90;;;;;;;;;;5025586;28;20475;-67
2023/03/24 09:34:32;;;;;;;8.13;1.92;;;;;;;;;;5009597;28;20209;-67
2023/03/24 09:36:58;;;;;;;10.35;2.20;;;;;;;;;;5013157;28;20642;-67
2023/03/24 09:39:24;;;;;;;10.80;2.33;;;;;;;;;;5011125;28;20562;-67
2023/03/24 09:41:49;;;;;;;8.65;1.95;;;;;;;;;;5012723;28;20218;-66
2023/03/24 09:44:27;;;;;;;15.88;2.17;;;;;;;;;;5026027;28;20228;-67
2023/03/24 09:47:00;;;;;;;18.23;3.28;;;;;;;;;;5016059;28;20197;-67
2023/03/24 09:49:35;;;;;;;9.07;2.08;;;;;;;;;;5008855;28;20500;-67
2023/03/24 09:52:06;;;;;;;12.43;1.88;;;;;;;;;;5021356;28;20642;-66
2023/03/24 09:54:43;;;;;;;12.07;2.13;;;;;;;;;;5011585;28;20294;-66
2023/03/24 09:57:28;;;;;;;14.35;2.80;;;;;;;;;;5013822;28;20183;-66
2023/03/24 09:59:55;;;;;;;13.23;2.67;;;;;;;;;;5011177;28;20214;-67
2023/03/24 10:02:21;;;;;;;9.73;2.65;;;;;;;;;;5014954;28;20206;-67
2023/03/24 10:04:48;;;;;;;12.00;2.42;;;;;;;;;;5010132;28;20227;-66
2023/03/24 10:07:47;;;;;;;19.90;2.50;;;;;;;;;;5025571;28;20198;-66
2023/03/24 10:10:42;;;;;;;10.10;2.50;;;;;;;;;;5007894;28;20715;-68
2023/03/24 10:13:22;;;;;;;9.20;1.85;;;;;;;;;;5008606;28;20206;-67
2023/03/24 10:16:02;;;;;;;14.68;2.72;;;;;;;;;;5012338;28;20217;-67
2023/03/24 10:18:59;;;;;;;11.75;2.42;;;;;;;;;;5010525;28;20226;-67
2023/03/24 10:21:31;;;;;;;8.50;1.92;;;;;;;;;;5014416;28;20457;-68
2023/03/24 10:24:23;;;;;;;10.63;2.17;;;;;;;;;;5013685;28;20248;-67
2023/03/24 10:27:01;;;;;;;8.32;2.08;;;;;;;;;;5010391;28;20421;-67
2023/03/24 10:29:31;;;;;;;13.05;2.53;;;;;;;;;;5026895;28;20623;-67
2023/03/24 10:32:20;;;;;;;11.57;2.08;;;;;;;;;;5011174;28;20194;-68
2023/03/24 10:34:50;;;;;;;9.95;1.80;;;;;;;;;;5012815;28;20881;-67
2023/03/24 10:37:16;;;;;;;9.05;2.03;;;;;;;;;;5027846;28;20254;-68
2023/03/24 10:39:42;;;;;;;9.88;2.17;;;;;;;;;;5031885;28;20194;-68
2023/03/24 10:42:31;;;;;;;13.15;2.33;;;;;;;;;;5021754;28;20195;-68
2023/03/24 10:44:57;;;;;;;12.05;1.65;;;;;;;;;;5018594;28;20275;-66
2023/03/24 10:47:28;;;;;;;10.90;1.83;;;;;;;;;;5018789;28;20732;-67
2023/03/24 10:49:59;;;;;;;7.35;1.60;;;;;;;;;;5022147;28;20199;-68
2023/03/24 10:52:25;;;;;;;13.07;1.90;;;;;;;;;;5031812;28;20212;-66
2023/03/24 10:55:02;;;;;;;7.80;1.70;;;;;;;;;;5029446;28;20653;-67
2023/03/24 10:57:28;;;;;;;14.82;2.17;;;;;;;;;;5024017;28;20705;-68
2023/03/24 11:00:10;;;;;;;5.97;1.60;;;;;;;;;;5027231;28;20201;-67
2023/03/24 11:02:36;;;;;;;6.60;2.03;;;;;;;;;;5025605;28;20194;-67
2023/03/24 11:05:22;;;;;;;11.10;2.10;;;;;;;;;;5019080;28;20206;-66
2023/03/24 11:07:49;;;;;;;6.32;1.80;;;;;;;;;;5018255;28;20221;-66
2023/03/24 11:10:17;;;;;;;9.65;1.95;;;;;;;;;;5011926;28;20622;-66
2023/03/24 11:13:01;;;;;;;6.97;1.73;;;;;;;;;;5020185;28;20640;-66
2023/03/24 11:15:32;;;;;;;6.57;1.70;;;;;;;;;;5016872;28;20190;-66
2023/03/24 11:18:05;;;;;;;5.63;1.20;;;;;;;;;;5026003;28;20273;-67
2023/03/24 11:20:32;;;;;;;9.90;1.83;;;;;;;;;;5021653;28;20177;-67
2023/03/24 11:23:01;;;;;;;7.95;1.80;;;;;;;;;;5023657;28;20483;-66
2023/03/24 11:25:29;;;;;;;6.18;1.60;;;;;;;;;;5016368;28;20612;-68
2023/03/24 11:27:59;;;;;;;9.68;1.55;;;;;;;;;;5015037;28;20218;-66
2023/03/24 11:30:30;;;;;;;7.70;1.35;;;;;;;;;;5023494;28;20270;-66
2023/03/24 11:32:57;;;;;;;5.40;1.10;;;;;;;;;;5023487;28;20191;-66
2023/03/24 11:35:22;;;;;;;5.55;1.33;;;;;;;;;;5013962;28;20241;-67
2023/03/24 11:37:48;;;;;;;6.25;1.23;;;;;;;;;;5028163;28;20186;-68
2023/03/24 11:40:18;;;;;;;6.75;1.30;;;;;;;;;;5028495;28;20498;-68
2023/03/24 11:42:59;;;;;;;9.75;1.70;;;;;;;;;;5015766;28;20253;-68
2023/03/24 11:45:35;;;;;;;5.95;1.20;;;;;;;;;;5020321;28;20190;-67
2023/03/24 11:48:10;;;;;;;9.02;1.50;;;;;;;;;;5025429;28;20217;-67
2023/03/24 11:50:37;;;;;;;7.82;1.60;;;;;;;;;;5029425;28;20265;-67
2023/03/24 11:53:18;;;;;;;6.50;1.17;;;;;;;;;;5028913;28;20642;-67
2023/03/24 11:56:16;;;;;;;8.40;1.38;;;;;;;;;;5028299;28;20201;-67
2023/03/24 11:58:51;;;;;;;7.43;1.55;;;;;;;;;;5019245;28;20202;-67
2023/03/24 12:01:20;;;;;;;9.65;1.77;;;;;;;;;;5025163;28;20209;-68
2023/03/24 12:04:02;;;;;;;7.82;1.40;;;;;;;;;;5020691;28;20194;-67
2023/03/24 12:06:53;;;;;;;5.35;1.13;;;;;;;;;;5029221;28;20201;-67
2023/03/24 12:09:31;;;;;;;11.52;1.58;;;;;;;;;;5016017;28;20190;-65
2023/03/24 12:11:59;;;;;;;6.65;1.40;;;;;;;;;;5028556;28;20190;-66
2023/03/24 12:14:46;;;;;;;9.73;1.92;;;;;;;;;;5027730;28;20788;-66
2023/03/24 12:17:24;;;;;;;9.27;1.60;;;;;;;;;;5028900;28;20233;-66
2023/03/24 12:20:07;;;;;;;10.30;2.15;;;;;;;;;;5010088;28;20186;-66
2023/03/24 12:23:09;;;;;;;8.73;1.70;;;;;;;;;;5018593;28;20252;-66
2023/03/24 12:25:47;;;;;;;14.05;1.85;;;;;;;;;;5015128;28;20190;-66
2023/03/24 12:28:39;;;;;;;8.75;1.90;;;;;;;;;;4983048;28;1061093;-66
2023/03/24 12:31:29;;;;;;;8.35;2.10;;;;;;;;;;5010294;28;20191;-67
2023/03/24 12:34:26;;;;;;;6.15;1.63;;;;;;;;;;5016687;28;20278;-70
2023/03/24 12:37:06;;;;;;;7.50;1.90;;;;;;;;;;5011548;28;20225;-70
2023/03/24 12:39:36;;;;;;;8.80;2.10;;;;;;;;;;5013577;28;20197;-71
2023/03/24 12:42:14;;;;;;;9.68;2.10;;;;;;;;;;5029315;28;20198;-71
2023/03/24 12:45:00;;;;;;;9.18;2.22;;;;;;;;;;5030139;28;20182;-72
2023/03/24 12:48:06;;;;;;;8.50;2.33;;;;;;;;;;5030731;28;20206;-70
2023/03/24 12:51:05;;;;;;;8.43;2.25;;;;;;;;;;5024910;28;20199;-71
2023/03/24 12:53:45;;;;;;;11.35;2.28;;;;;;;;;;5028747;28;20728;-70
2023/03/24 12:56:26;;;;;;;13.40;2.83;;;;;;;;;;5028755;28;20582;-70
2023/03/24 12:59:18;;;;;;;9.90;2.35;;;;;;;;;;5013533;28;20198;-71
2023/03/24 13:01:50;;;;;;;9.60;1.88;;;;;;;;;;5019586;28;20305;-70
2023/03/24 13:04:20;;;;;;;7.07;1.80;;;;;;;;;;5019500;28;20185;-70
2023/03/24 13:06:58;;;;;;;10.25;2.30;;;;;;;;;;5017721;28;20270;-71
2023/03/24 13:09:38;;;;;;;11.93;2.10;;;;;;;;;;5028098;28;20289;-70
2023/03/24 13:12:20;;;;;;;7.82;1.70;;;;;;;;;;5020885;28;20212;-69
2023/03/24 13:14:56;;;;;;;6.82;1.48;;;;;;;;;;5037016;28;20398;-68
2023/03/24 13:17:28;;;;;;;12.73;2.03;;;;;;;;;;5027198;28;20198;-68
2023/03/24 13:19:55;;;;;;;5.32;1.23;;;;;;;;;;5013301;28;20422;-67
2023/03/24 13:22:23;;;;;;;6.38;1.27;;;;;;;;;;5018073;28;20198;-68
2023/03/24 13:24:49;;;;;;;5.40;1.58;;;;;;;;;;5017447;28;20197;-68
2023/03/24 13:27:21;;;;;;;7.53;1.33;;;;;;;;;;5022752;28;20216;-68
2023/03/24 13:29:59;;;;;;;6.47;1.23;;;;;;;;;;5022150;28;20600;-68
2023/03/24 13:32:32;;;;;;;3.10;1.13;;;;;;;;;;5018517;28;20657;-69
2023/03/24 13:35:24;;;;;;;7.88;1.02;;;;;;;;;;5009988;28;20266;-67
2023/03/24 13:38:04;;;;;;;3.85;0.88;;;;;;;;;;5016181;28;20198;-67
2023/03/24 13:40:31;;;;;;;6.63;0.80;;;;;;;;;;5007889;28;20186;-68
2023/03/24 13:43:09;;;;;;;5.80;0.70;;;;;;;;;;5016608;28;20505;-67
2023/03/24 13:45:58;;;;;;;5.70;1.10;;;;;;;;;;5026059;28;20177;-66
2023/03/24 13:48:36;;;;;;;6.68;1.33;;;;;;;;;;5005310;28;20215;-67
2023/03/24 13:51:32;;;;;;;8.25;1.10;;;;;;;;;;5024049;28;20912;-67
2023/03/24 13:54:15;;;;;;;4.70;0.95;;;;;;;;;;5021293;28;20213;-66
2023/03/24 13:56:51;;;;;;;5.70;1.08;;;;;;;;;;5018670;28;20556;-67
2023/03/24 13:59:25;;;;;;;4.15;1.27;;;;;;;;;;5019766;28;20314;-67
2023/03/24 14:02:21;;;;;;;5.70;0.93;;;;;;;;;;5008904;28;20219;-67
2023/03/24 14:05:01;;;;;;;5.78;0.88;;;;;;;;;;5016161;28;20206;-68
2023/03/24 14:07:32;;;;;;;3.08;0.85;;;;;;;;;;5018128;28;20212;-67
2023/03/24 14:10:21;;;;;;;4.25;0.82;;;;;;;;;;5023818;28;20345;-67
2023/03/24 14:12:58;;;;;;;4.60;1.08;;;;;;;;;;5000881;28;20269;-68
2023/03/24 14:15:31;;;;;;;3.80;0.95;;;;;;;;;;5013194;28;20250;-67
2023/03/24 14:18:22;;;;;;;8.13;0.95;;;;;;;;;;5019898;28;20639;-67
2023/03/24 14:20:56;;;;;;;6.65;1.38;;;;;;;;;;5011473;28;20666;-68
2023/03/24 14:23:38;;;;;;;3.78;1.10;;;;;;;;;;5019203;28;20265;-67
2023/03/24 14:26:07;;;;;;;7.47;1.33;;;;;;;;;;5013807;28;20211;-68
2023/03/24 14:28:39;;;;;;;6.35;1.40;;;;;;;;;;5024586;28;20222;-69
2023/03/24 14:31:17;;;;;;;8.30;1.50;;;;;;;;;;5013520;28;20190;-69
2023/03/24 14:33:51;;;;;;;5.90;1.52;;;;;;;;;;5016189;28;20190;-68
2023/03/24 14:36:29;;;;;;;4.50;1.70;;;;;;;;;;5008477;28;20190;-69
2023/03/24 14:39:15;;;;;;;7.18;2.17;;;;;;;;;;5028826;28;20265;-69
2023/03/24 14:41:43;;;;;;;4.97;1.60;;;;;;;;;;5017827;28;20811;-69
2023/03/24 14:44:09;;;;;;;6.30;1.60;;;;;;;;;;5024793;28;20609;-70
2023/03/24 14:46:39;;;;;;;4.38;1.20;;;;;;;;;;5011976;28;20248;-71
2023/03/24 14:49:29;;;;;;;5.60;1.60;;;;;;;;;;5027155;28;20214;-72
2023/03/24 14:52:19;;;;;;;7.75;2.35;;;;;;;;;;5030951;28;20712;-69
2023/03/24 14:54:51;;;;;;;7.57;2.33;;;;;;;;;;5026472;28;20198;-70
2023/03/24 14:57:42;;;;;;;7.30;2.53;;;;;;;;;;5019767;28;20594;-70
2023/03/24 15:00:41;;;;;;;7.53;2.28;;;;;;;;;;5024875;28;20217;-70
2023/03/24 15:03:15;;;;;;;13.45;2.30;;;;;;;;;;5030855;28;20186;-69
2023/03/24 15:05:40;;;;;;;11.48;2.70;;;;;;;;;;5020524;28;20205;-70
2023/03/24 15:08:25;;;;;;;9.00;3.00;;;;;;;;;;5028443;28;20214;-69
2023/03/24 15:11:02;;;;;;;8.05;2.13;;;;;;;;;;5027781;28;20572;-68
2023/03/24 15:13:28;;;;;;;4.65;1.77;;;;;;;;;;5016812;28;20631;-68